createdAt,value
2022-11-23T00:01:31.703Z,85702.84
2022-11-23T00:04:03.634Z,85708.41
2022-11-23T00:06:32.264Z,85710.25
2022-11-23T00:09:00.014Z,85705.41
2022-11-23T00:11:28.486Z,85702.81
2022-11-23T00:13:56.319Z,85719.13
2022-11-23T00:16:27.779Z,85720.25
2022-11-23T00:19:00.991Z,85718.75
2022-11-23T00:21:32.097Z,85726.94
2022-11-23T00:23:59.754Z,85735.44
2022-11-23T00:26:27.680Z,85728.78
2022-11-23T00:28:55.157Z,85733.97
2022-11-23T00:31:22.557Z,85738.81
2022-11-23T00:33:55.435Z,85733.22
2022-11-23T00:36:25.220Z,85739.56
2022-11-23T00:38:53.700Z,85734.72
2022-11-23T00:41:25.213Z,85731.03
2022-11-23T00:43:52.679Z,85737.72
2022-11-23T00:46:22.039Z,85738.09
2022-11-23T00:48:53.391Z,85733.97
2022-11-23T00:51:25.644Z,85732.13
2022-11-23T00:53:53.256Z,85742.53
2022-11-23T00:56:21.102Z,85740.31
2022-11-23T00:58:57.482Z,85739.16
2022-11-23T01:01:29.408Z,85725.41
2022-11-23T01:03:58.741Z,85749.19
2022-11-23T01:06:32.967Z,85745.09
2022-11-23T01:09:13.510Z,85733.94
2022-11-23T01:11:41.078Z,85740.28
2022-11-23T01:14:08.614Z,85745.84
2022-11-23T01:16:39.616Z,85750.28
2022-11-23T01:19:13.717Z,85741.38
2022-11-23T01:21:41.336Z,85736.91
2022-11-23T01:24:19.267Z,85740.63
2022-11-23T01:26:51.544Z,85744.34
2022-11-23T01:29:19.533Z,85744.31
2022-11-23T01:31:47.183Z,85744.66
2022-11-23T01:34:16.124Z,85742.06
2022-11-23T01:36:45.061Z,85742.06
2022-11-23T01:39:13.723Z,85741.69
2022-11-23T01:41:44.514Z,85743.16
2022-11-23T01:44:27.538Z,85732.38
2022-11-23T01:47:00.112Z,85741.28
2022-11-23T01:49:40.603Z,85744.97
2022-11-23T01:52:15.180Z,85742.34
2022-11-23T01:55:00.676Z,85746.09
2022-11-23T01:57:42.246Z,85746.41
2022-11-23T02:00:10.792Z,85744.91
2022-11-23T02:02:43.319Z,85748.22
2022-11-23T02:05:13.366Z,85750.81
2022-11-23T02:07:41.836Z,85742.63
2022-11-23T02:10:09.892Z,85750.03
2022-11-23T02:12:37.026Z,85748.16
2022-11-23T02:15:04.753Z,85748.53
2022-11-23T02:17:34.608Z,85753.34
2022-11-23T02:20:22.115Z,85762.59
2022-11-23T02:23:04.651Z,85762.16
2022-11-23T02:25:43.743Z,85761.41
2022-11-23T02:28:27.741Z,85763.94
2022-11-23T02:30:56.283Z,85761.72
2022-11-23T02:33:24.122Z,85759.81
2022-11-23T02:35:58.491Z,85761.66
2022-11-23T02:38:31.761Z,85766.78
2022-11-23T02:40:59.367Z,85766.78
2022-11-23T02:43:26.863Z,85769.00
2022-11-23T02:45:58.179Z,85766.00
2022-11-23T02:48:26.463Z,85754.88
2022-11-23T02:50:53.680Z,85760.44
2022-11-23T02:53:21.071Z,85771.16
2022-11-23T02:55:48.271Z,85761.13
2022-11-23T02:58:15.510Z,85760.38
2022-11-23T03:00:42.856Z,85767.41
2022-11-23T03:03:10.218Z,85762.97
2022-11-23T03:05:37.473Z,85758.16
2022-11-23T03:08:05.430Z,85758.50
2022-11-23T03:10:36.226Z,85766.28
2022-11-23T03:13:03.529Z,85766.63
2022-11-23T03:15:30.660Z,85775.13
2022-11-23T03:17:58.076Z,85773.22
2022-11-23T03:20:25.273Z,85766.56
2022-11-23T03:22:52.406Z,85767.69
2022-11-23T03:25:19.623Z,85774.34
2022-11-23T03:27:46.758Z,85773.56
2022-11-23T03:30:14.337Z,85781.69
2022-11-23T03:32:52.417Z,85774.63
2022-11-23T03:35:19.810Z,85781.66
2022-11-23T03:37:47.011Z,85793.53
2022-11-23T03:40:14.454Z,85792.44
2022-11-23T03:42:41.866Z,85790.59
2022-11-23T03:45:09.901Z,85792.75
2022-11-23T04:00:12.962Z,85791.91
2022-11-23T04:02:40.817Z,85801.06
2022-11-23T04:05:08.876Z,85798.00
2022-11-23T04:07:36.338Z,85800.91
2022-11-23T04:10:04.652Z,85806.03
2022-11-23T04:12:31.893Z,85810.84
2022-11-23T04:14:59.219Z,85797.09
2022-11-23T04:17:26.413Z,85803.75
2022-11-23T04:19:53.675Z,85812.66
2022-11-23T04:22:21.050Z,85809.31
2022-11-23T04:24:48.211Z,85804.13
2022-11-23T04:27:15.439Z,85810.78
2022-11-23T04:29:42.556Z,85811.16
2022-11-23T04:32:09.693Z,85811.91
2022-11-23T04:34:37.552Z,85812.28
2022-11-23T04:37:09.052Z,85816.72
2022-11-23T04:39:40.452Z,85809.69
2022-11-23T04:42:09.190Z,85816.03
2022-11-23T04:44:36.288Z,85808.63
2022-11-23T04:47:03.589Z,85806.44
2022-11-23T04:49:31.033Z,85806.09
2022-11-23T04:51:58.357Z,85808.63
2022-11-23T04:54:25.843Z,85810.91
2022-11-23T04:56:53.129Z,85811.31
2022-11-23T04:59:20.586Z,85816.13
2022-11-23T05:01:48.391Z,85811.66
2022-11-23T05:04:17.872Z,85812.41
2022-11-23T05:06:46.602Z,85815.03
2022-11-23T05:09:14.030Z,85810.59
2022-11-23T05:11:41.303Z,85819.88
2022-11-23T05:14:10.437Z,85816.19
2022-11-23T05:16:37.593Z,85825.06
2022-11-23T05:19:04.718Z,85820.66
2022-11-23T05:21:31.856Z,85818.03
2022-11-23T05:23:59.021Z,85810.25
2022-11-23T05:26:26.208Z,85812.50
2022-11-23T05:28:53.374Z,85811.75
2022-11-23T05:31:20.522Z,85814.34
2022-11-23T05:33:47.676Z,85819.56
2022-11-23T05:36:14.963Z,85823.25
2022-11-23T05:38:42.487Z,85815.13
2022-11-23T05:41:09.738Z,85814.75
2022-11-23T05:43:36.872Z,85824.03
2022-11-23T05:46:04.327Z,85821.81
2022-11-23T05:48:31.579Z,85817.34
2022-11-23T05:51:04.852Z,85818.09
2022-11-23T05:53:33.061Z,85815.44
2022-11-23T05:56:01.808Z,85819.16
2022-11-23T05:58:29.414Z,85826.88
2022-11-23T06:01:01.311Z,85834.28
2022-11-23T06:03:28.605Z,85828.72
2022-11-23T06:05:55.834Z,85830.94
2022-11-23T06:08:23.053Z,85826.50
2022-11-23T06:10:50.183Z,85832.00
2022-11-23T06:13:17.326Z,85833.81
2022-11-23T06:15:44.527Z,85832.00
2022-11-23T06:18:11.654Z,85842.41
2022-11-23T06:20:38.773Z,85834.25
2022-11-23T06:23:06.232Z,85841.63
2022-11-23T06:25:33.402Z,85838.66
2022-11-23T06:28:01.816Z,85846.84
2022-11-23T06:30:30.076Z,85846.50
2022-11-23T06:32:57.905Z,85844.28
2022-11-23T06:35:25.252Z,85843.09
2022-11-23T06:37:52.750Z,85842.78
2022-11-23T06:40:20.183Z,85853.25
2022-11-23T06:42:47.386Z,85848.44
2022-11-23T06:45:18.095Z,85850.28
2022-11-23T06:47:45.245Z,85848.44
2022-11-23T06:50:12.546Z,85855.53
2022-11-23T06:52:39.704Z,85866.28
2022-11-23T06:55:07.186Z,85860.34
2022-11-23T06:57:34.479Z,85867.38
2022-11-23T07:00:01.753Z,85868.53
2022-11-23T07:02:28.983Z,85871.50
2022-11-23T07:04:56.187Z,85880.06
2022-11-23T07:07:23.412Z,85880.44
2022-11-23T07:09:50.651Z,85879.72
2022-11-23T07:12:17.809Z,85883.03
2022-11-23T07:14:44.970Z,85888.28
2022-11-23T07:17:17.199Z,85886.44
2022-11-23T07:19:44.811Z,85897.19
2022-11-23T07:22:12.033Z,85893.81
2022-11-23T07:24:43.925Z,85900.53
2022-11-23T07:27:13.955Z,85895.34
2022-11-23T07:29:41.109Z,85900.16
2022-11-23T07:32:08.251Z,85905.03
2022-11-23T07:34:35.428Z,85912.13
2022-11-23T07:37:02.613Z,85905.47
2022-11-23T07:39:55.172Z,85905.16
2022-11-23T07:42:32.735Z,85916.66
2022-11-23T07:45:03.287Z,85915.22
2022-11-23T07:47:30.547Z,85912.66
2022-11-23T07:49:57.801Z,85919.38
2022-11-23T07:52:25.566Z,85914.22
2022-11-23T07:54:52.727Z,85916.84
2022-11-23T07:57:19.908Z,85918.72
2022-11-23T07:59:47.141Z,85916.13
2022-11-23T08:02:16.055Z,85922.13
2022-11-23T08:04:43.466Z,85925.50
2022-11-23T08:07:11.031Z,85925.13
2022-11-23T08:09:38.487Z,85925.91
2022-11-23T08:12:06.176Z,85930.41
2022-11-23T08:14:33.893Z,85937.88
2022-11-23T08:17:01.208Z,85937.88
2022-11-23T08:19:28.377Z,85942.38
2022-11-23T08:21:55.467Z,85940.19
2022-11-23T08:24:22.798Z,85938.00
2022-11-23T08:26:49.964Z,85940.63
2022-11-23T08:29:17.161Z,85935.09
2022-11-23T08:31:44.544Z,85937.38
2022-11-23T08:34:11.797Z,85949.31
2022-11-23T08:36:39.152Z,85940.03
2022-11-23T08:39:06.423Z,85939.31
2022-11-23T08:41:34.235Z,85941.94
2022-11-23T08:44:01.422Z,85948.66
2022-11-23T08:46:28.623Z,85943.50
2022-11-23T08:48:55.840Z,85953.56
2022-11-23T08:51:23.032Z,85955.81
2022-11-23T08:53:51.003Z,85945.78
2022-11-23T08:56:20.034Z,85958.09
2022-11-23T08:58:48.024Z,85964.81
2022-11-23T09:01:17.870Z,85966.34
2022-11-23T09:03:45.925Z,85966.00
2022-11-23T09:06:13.265Z,85961.19
2022-11-23T09:08:40.416Z,85972.38
2022-11-23T09:11:12.135Z,85968.66
2022-11-23T09:13:40.183Z,85980.97
2022-11-23T09:16:07.855Z,85976.09
2022-11-23T09:18:35.115Z,85985.09
2022-11-23T09:21:04.702Z,85980.63
2022-11-23T09:23:32.431Z,85978.41
2022-11-23T09:26:04.738Z,85981.44
2022-11-23T09:28:32.886Z,85987.41
2022-11-23T09:31:04.621Z,85994.50
2022-11-23T09:33:31.889Z,85993.78
2022-11-23T09:36:04.946Z,85988.22
2022-11-23T09:38:57.879Z,85994.94
2022-11-23T09:42:08.732Z,85993.50
2022-11-23T09:44:57.808Z,85993.50
2022-11-23T09:48:25.155Z,85994.25
2022-11-23T09:51:16.573Z,85999.13
2022-11-23T09:53:57.029Z,85995.03
2022-11-23T09:56:30.862Z,85998.41
2022-11-23T09:59:05.472Z,86004.41
2022-11-23T10:01:32.924Z,86007.00
2022-11-23T10:04:00.274Z,86007.78
2022-11-23T10:06:37.256Z,86009.28
2022-11-23T10:09:36.237Z,85999.63
2022-11-23T10:12:18.227Z,86001.13
2022-11-23T10:15:09.786Z,85996.31
2022-11-23T10:18:05.329Z,85994.09
2022-11-23T10:20:59.571Z,85992.66
2022-11-23T10:23:53.390Z,85995.25
2022-11-23T10:26:28.959Z,85991.94
2022-11-23T10:29:06.590Z,85984.13
2022-11-23T10:31:33.753Z,85985.22
2022-11-23T10:34:13.699Z,85976.66
2022-11-23T10:36:42.177Z,85971.44
2022-11-23T10:39:24.527Z,85980.38
2022-11-23T10:41:53.597Z,85979.28
2022-11-23T10:44:36.438Z,85979.66
2022-11-23T10:47:04.805Z,85969.19
2022-11-23T10:49:35.097Z,85964.34
2022-11-23T10:52:28.296Z,85968.09
2022-11-23T10:55:00.451Z,85967.34
2022-11-23T10:57:32.692Z,85972.19
2022-11-23T11:00:09.034Z,85960.97
2022-11-23T11:02:55.758Z,85972.56
2022-11-23T11:06:07.073Z,85971.41
2022-11-23T11:08:22.118Z,85968.81
2022-11-23T11:11:21.765Z,85968.44
2022-11-23T11:13:49.920Z,85965.41
2022-11-23T11:16:35.097Z,85961.69
2022-11-23T11:19:21.707Z,85966.13
2022-11-23T11:21:49.164Z,85962.38
2022-11-23T11:24:29.727Z,85969.47
2022-11-23T11:27:29.364Z,85965.66
2022-11-23T11:30:04.301Z,85963.03
2022-11-23T11:33:22.762Z,85964.47
2022-11-23T11:35:55.472Z,85968.22
2022-11-23T11:38:35.271Z,85964.03
2022-11-23T11:41:15.444Z,85961.75
2022-11-23T11:44:12.585Z,85965.06
2022-11-23T11:46:52.788Z,85960.88
2022-11-23T11:49:34.690Z,85962.69
2022-11-23T11:52:21.834Z,85969.00
2022-11-23T11:55:34.997Z,85973.13
2022-11-23T11:58:10.895Z,85970.13
2022-11-23T12:00:44.793Z,85968.25
2022-11-23T12:03:55.301Z,85961.16
2022-11-23T12:06:35.305Z,85963.78
2022-11-23T12:09:29.998Z,85962.25
2022-11-23T12:11:58.965Z,85958.91
2022-11-23T12:14:27.534Z,85963.41
2022-11-23T12:17:32.743Z,85961.94
2022-11-23T12:20:56.577Z,85957.06
2022-11-23T12:23:44.674Z,85959.75
2022-11-23T12:26:51.488Z,85966.53
2022-11-23T12:29:38.261Z,85963.59
2022-11-23T12:32:39.506Z,85957.72
2022-11-23T12:36:07.994Z,85960.38
2022-11-23T12:38:51.744Z,85960.13
2022-11-23T12:41:57.189Z,85957.91
2022-11-23T12:44:52.180Z,85955.72
2022-11-23T12:47:46.076Z,85963.94
2022-11-23T12:50:46.486Z,85968.44
2022-11-23T12:53:36.225Z,85956.53
2022-11-23T12:56:12.629Z,85956.88
2022-11-23T12:58:42.883Z,85971.06
2022-11-23T13:01:30.939Z,85963.22
2022-11-23T13:04:45.099Z,85972.16
2022-11-23T13:08:02.758Z,85963.56
2022-11-23T13:10:52.598Z,85965.03
2022-11-23T13:13:35.699Z,85963.88
2022-11-23T13:16:36.425Z,85969.09
2022-11-23T13:19:56.159Z,85963.09
2022-11-23T13:22:25.472Z,85962.72
2022-11-23T13:25:15.635Z,85967.56
2022-11-23T13:27:48.777Z,85969.00
2022-11-23T13:31:07.685Z,85959.31
2022-11-23T13:33:37.475Z,85964.47
2022-11-23T13:36:10.341Z,85959.25
2022-11-23T13:38:43.888Z,85964.06
2022-11-23T13:41:35.884Z,85971.50
2022-11-23T13:44:30.488Z,85966.66
2022-11-23T13:47:13.758Z,85971.09
2022-11-23T13:49:52.697Z,85971.81
2022-11-23T13:52:22.925Z,85969.56
2022-11-23T13:54:57.409Z,85976.25
2022-11-23T13:57:25.040Z,85973.25
2022-11-23T13:59:52.622Z,85968.38
2022-11-23T14:02:30.920Z,85969.50
2022-11-23T14:05:54.115Z,85968.72
2022-11-23T14:08:23.895Z,85979.13
2022-11-23T14:10:52.145Z,85979.13
2022-11-23T14:13:32.533Z,85983.19
2022-11-23T14:16:03.523Z,85975.72
2022-11-23T14:19:27.817Z,85984.28
2022-11-23T14:22:36.639Z,85982.00
2022-11-23T14:25:34.615Z,85985.28
2022-11-23T14:28:19.282Z,85991.22
2022-11-23T14:31:36.010Z,85989.69
2022-11-23T14:34:21.964Z,85987.44
2022-11-23T14:37:07.591Z,85988.91
2022-11-23T14:40:11.669Z,85989.25
2022-11-23T14:42:45.978Z,86002.59
2022-11-23T14:45:15.573Z,86001.47
2022-11-23T14:47:43.081Z,85997.72
2022-11-23T14:50:30.194Z,86001.41
2022-11-23T14:52:59.949Z,86001.72
2022-11-23T14:55:30.040Z,86008.78
2022-11-23T14:58:06.207Z,86006.16
2022-11-23T15:00:42.771Z,86002.41
2022-11-23T15:03:48.901Z,86006.84
2022-11-23T15:06:18.574Z,86006.03
2022-11-23T15:09:04.295Z,86010.09
2022-11-23T15:11:36.638Z,86018.56
2022-11-23T15:14:17.248Z,86014.81
2022-11-23T15:16:44.848Z,86014.06
2022-11-23T15:19:29.901Z,86023.69
2022-11-23T15:21:57.767Z,86032.97
2022-11-23T15:24:27.593Z,86035.91
2022-11-23T15:27:10.834Z,86042.13
2022-11-23T15:29:39.615Z,86046.22
2022-11-23T15:32:33.365Z,86046.91
2022-11-23T15:35:08.017Z,86050.59
2022-11-23T15:37:45.547Z,86062.81
2022-11-23T15:40:16.077Z,86064.94
2022-11-23T15:42:46.663Z,86064.19
2022-11-23T15:45:42.297Z,86060.81
2022-11-23T15:48:20.292Z,86068.19
2022-11-23T15:51:02.330Z,86075.16
2022-11-23T15:53:50.081Z,86074.06
2022-11-23T15:56:37.426Z,86072.16
2022-11-23T15:59:45.992Z,86081.09
2022-11-23T16:02:26.820Z,86074.00
2022-11-23T16:05:19.045Z,86081.03
2022-11-23T16:07:53.627Z,86086.19
2022-11-23T16:10:30.982Z,86090.59
2022-11-23T16:13:06.441Z,86093.94
2022-11-23T16:15:42.312Z,86097.66
2022-11-23T16:18:22.786Z,86101.41
2022-11-23T16:20:57.233Z,86093.94
2022-11-23T16:23:29.703Z,86100.25
2022-11-23T16:26:06.036Z,86099.84
2022-11-23T16:28:37.529Z,86096.44
2022-11-23T16:31:05.405Z,86103.03
2022-11-23T16:33:32.711Z,86111.97
2022-11-23T16:35:59.897Z,86106.00
2022-11-23T16:38:27.009Z,86102.59
2022-11-23T16:40:54.149Z,86115.16
2022-11-23T16:43:21.739Z,86114.84
2022-11-23T16:45:51.360Z,86108.13
2022-11-23T16:48:24.725Z,86114.03
2022-11-23T16:50:57.227Z,86121.06
2022-11-23T16:53:24.950Z,86111.38
2022-11-23T16:55:54.637Z,86111.03
2022-11-23T16:58:22.572Z,86110.28
2022-11-23T17:00:50.613Z,86117.22
2022-11-23T17:03:21.298Z,86117.91
2022-11-23T17:05:48.867Z,86125.75
2022-11-23T17:08:22.994Z,86115.31
2022-11-23T17:10:51.664Z,86125.59
2022-11-23T17:13:29.500Z,86132.25
2022-11-23T17:15:56.945Z,86139.28
2022-11-23T17:18:24.141Z,86139.97
2022-11-23T17:20:51.546Z,86129.59
2022-11-23T17:23:18.876Z,86132.88
2022-11-23T17:25:46.152Z,86134.03
2022-11-23T17:28:19.442Z,86137.34
2022-11-23T17:30:47.100Z,86138.06
2022-11-23T17:33:14.465Z,86140.97
2022-11-23T17:35:41.997Z,86146.88
2022-11-23T17:38:19.855Z,86149.44
2022-11-23T17:40:47.015Z,86143.44
2022-11-23T17:43:15.257Z,86147.06
2022-11-23T17:45:44.692Z,86145.63
2022-11-23T17:48:14.863Z,86141.94
2022-11-23T17:50:43.906Z,86143.44
2022-11-23T17:53:11.638Z,86143.50
2022-11-23T17:55:57.882Z,86139.06
2022-11-23T17:58:25.771Z,86153.19
2022-11-23T18:00:54.254Z,86152.50
2022-11-23T18:03:22.551Z,86152.91
2022-11-23T18:05:49.936Z,86149.97
2022-11-23T18:08:18.450Z,86153.94
2022-11-23T18:10:48.175Z,86162.75
2022-11-23T18:13:15.485Z,86162.00
2022-11-23T18:15:42.829Z,86161.19
2022-11-23T18:18:10.087Z,86155.53
2022-11-23T18:20:37.567Z,86167.03
2022-11-23T18:23:04.894Z,86163.19
2022-11-23T18:25:32.101Z,86164.63
2022-11-23T18:28:01.935Z,86166.06
2022-11-23T18:30:29.458Z,86167.56
2022-11-23T18:32:56.676Z,86179.34
2022-11-23T18:35:24.024Z,86174.41
2022-11-23T18:37:51.201Z,86175.50
2022-11-23T18:40:18.511Z,86181.38
2022-11-23T18:42:47.789Z,86173.94
2022-11-23T18:45:15.033Z,86180.56
2022-11-23T18:47:42.446Z,86183.91
2022-11-23T18:50:10.081Z,86186.84
2022-11-23T18:52:37.246Z,86195.25
2022-11-23T18:55:04.995Z,86194.88
2022-11-23T18:57:32.058Z,86203.34
2022-11-23T19:00:00.214Z,86204.31
2022-11-23T19:02:29.251Z,86196.31
2022-11-23T19:04:57.608Z,86204.09
2022-11-23T19:07:27.510Z,86208.13
2022-11-23T19:09:57.760Z,86211.81
2022-11-23T19:12:36.174Z,86214.72
2022-11-23T19:15:11.453Z,86212.84
2022-11-23T19:17:54.057Z,86225.44
2022-11-23T19:20:24.077Z,86235.81
2022-11-23T19:22:51.856Z,86231.72
2022-11-23T19:25:19.375Z,86234.31
2022-11-23T19:27:46.522Z,86236.63
2022-11-23T19:30:16.094Z,86226.97
2022-11-23T19:32:43.550Z,86220.59
2022-11-23T19:35:11.059Z,86229.19
2022-11-23T19:37:38.499Z,86225.59
2022-11-23T19:40:07.025Z,86226.00
2022-11-23T19:42:35.522Z,86239.63
2022-11-23T19:45:04.439Z,86234.13
2022-11-23T19:47:31.695Z,86244.50
2022-11-23T19:49:59.359Z,86253.56
2022-11-23T19:52:41.993Z,86250.88
2022-11-23T19:55:16.405Z,86260.84
2022-11-23T19:57:43.894Z,86278.50
2022-11-23T20:00:12.183Z,86282.09
2022-11-23T20:02:39.559Z,86278.50
2022-11-23T20:05:07.363Z,86281.59
2022-11-23T20:07:34.727Z,86281.19
2022-11-23T20:10:02.080Z,86281.84
2022-11-23T20:12:29.295Z,86287.13
2022-11-23T20:14:56.524Z,86281.59
2022-11-23T20:17:23.630Z,86279.50
2022-11-23T20:19:50.774Z,86283.13
2022-11-23T20:22:18.005Z,86296.75
2022-11-23T20:24:45.429Z,86292.38
2022-11-23T20:27:12.714Z,86293.97
2022-11-23T20:29:39.956Z,86301.66
2022-11-23T20:32:07.080Z,86307.25
2022-11-23T20:34:34.740Z,86300.56
2022-11-23T20:37:02.105Z,86302.06
2022-11-23T20:39:29.427Z,86306.75
2022-11-23T20:41:56.594Z,86307.94
2022-11-23T20:44:26.295Z,86311.22
2022-11-23T20:47:04.044Z,86315.28
2022-11-23T20:49:31.942Z,86323.75
2022-11-23T20:51:59.819Z,86336.03
2022-11-23T20:54:27.200Z,86339.31
2022-11-23T20:56:54.591Z,86343.38
2022-11-23T20:59:22.088Z,86352.25
2022-11-23T21:01:49.415Z,86355.84
2022-11-23T21:04:16.577Z,86353.69
2022-11-23T21:06:44.020Z,86364.75
2022-11-23T21:09:11.444Z,86361.44
2022-11-23T21:11:38.862Z,86363.69
2022-11-23T21:14:20.885Z,86366.34
2022-11-23T21:16:51.957Z,86372.38
2022-11-23T21:19:22.101Z,86366.19
2022-11-23T21:21:49.682Z,86364.44
2022-11-23T21:24:17.285Z,86369.69
2022-11-23T21:26:44.701Z,86373.03
2022-11-23T21:29:12.140Z,86386.81
2022-11-23T21:31:43.498Z,86382.91
2022-11-23T21:34:31.634Z,86385.16
2022-11-23T21:36:59.253Z,86378.94
2022-11-23T21:39:26.595Z,86384.97
2022-11-23T21:41:54.781Z,86379.78
2022-11-23T21:44:22.240Z,86389.91
2022-11-23T21:46:49.668Z,86382.53
2022-11-23T21:49:17.110Z,86391.13
2022-11-23T21:51:44.531Z,86390.06
2022-11-23T21:54:14.285Z,86375.97
2022-11-23T21:56:44.514Z,86383.03
2022-11-23T21:59:12.952Z,86383.34
2022-11-23T22:01:41.454Z,86388.88
2022-11-23T22:04:13.191Z,86389.97
2022-11-23T22:06:41.259Z,86388.38
2022-11-23T22:09:10.316Z,86385.53
2022-11-23T22:11:40.305Z,86385.78
2022-11-23T22:14:12.222Z,86398.75
2022-11-23T22:16:43.602Z,86402.03
2022-11-23T22:19:13.373Z,86403.09
2022-11-23T22:21:43.209Z,86408.63
2022-11-23T22:24:20.192Z,86412.31
2022-11-23T22:26:48.676Z,86405.63
2022-11-23T22:29:16.212Z,86406.72
2022-11-23T22:31:43.435Z,86401.53
2022-11-23T22:34:14.871Z,86405.53
2022-11-23T22:36:42.625Z,86398.19
2022-11-23T22:39:10.091Z,86407.06
2022-11-23T22:41:38.168Z,86414.66
2022-11-23T22:44:10.544Z,86413.50
2022-11-23T22:46:39.093Z,86414.09
2022-11-23T22:49:06.442Z,86410.84
2022-11-23T22:51:34.027Z,86412.75
2022-11-23T22:54:02.384Z,86417.88
2022-11-23T22:56:31.420Z,86420.22
2022-11-23T22:58:59.188Z,86425.72
2022-11-23T23:01:30.908Z,86433.91
2022-11-23T23:04:01.976Z,86435.66
2022-11-23T23:06:33.514Z,86434.47
2022-11-23T23:09:03.333Z,86433.81
2022-11-23T23:11:32.938Z,86430.81
2022-11-23T23:14:00.620Z,86426.72
2022-11-23T23:16:28.295Z,86434.41
2022-11-23T23:18:56.364Z,86435.47
2022-11-23T23:21:24.449Z,86445.53
2022-11-23T23:23:55.207Z,86434.81
2022-11-23T23:26:25.771Z,86444.66
2022-11-23T23:29:00.554Z,86450.63
2022-11-23T23:31:28.708Z,86446.84
2022-11-23T23:33:55.973Z,86452.72
2022-11-23T23:36:24.095Z,86451.84
2022-11-23T23:38:51.418Z,86458.88
2022-11-23T23:41:18.810Z,86455.13
2022-11-23T23:43:46.289Z,86457.28
2022-11-23T23:46:13.849Z,86457.28
2022-11-23T23:48:41.557Z,86456.84
2022-11-23T23:51:14.165Z,86450.41
2022-11-23T23:53:42.412Z,86464.03
2022-11-23T23:56:16.598Z,86455.00
2022-11-23T23:58:44.358Z,86458.91
